首页
METAR-TAF:

METAR-TAF

机场 :

Marshalltown Municipal Airport

Marshalltown, 艾奥瓦州, 美国

纬度: 42-06-38N, 经度: 092-54-58W, 海拔: 296米

当前天气观测

该预报发布于40分钟前的05:53 UTC
风速3节,风向西
温度 -8°C
湿度 85%
气压 1020 hPa
能見度: 12.9公里
阴天层高于10000英尺

METAR: KMIW 190553Z AUTO 27003KT 8SM OVC100 M08/M10 A3012 RMK AO2 SLP214 I6000 T10831100 11078 21106 410171106 51009

时间: 00:33 (06:33 UTC)


TAF: 丢失

超过4000个机场的气象观测和天气预报(METAR&TAF报告)。

可查询的气象台以黄色和红色小点在地图上表示。

将鼠标移到小点上方,可查看气象台名称。

然后点击查看天气观测和预报。

如需切换地图:点击带黑十字的绿色按钮放大地图;点击带横线的绿色按钮缩小地图;或者点击绿色箭头查看邻近地区的地图。


METAR-TAF: